Big Bear Station Historical Data
Daily Summary for February 22, 2019 Units:  English    Metric   Both
Next Day »
Daily Weekly Monthly Yearly Custom

Warning: Division by zero in /home/actonast/www/www/weather/wxbb.php on line 1319
  High: Low: Average:
Temperature: 30.2 °F 2.7 °F 18 °F
Dew Point: 16.6 °F 1.1 °F 11.7 °F
Humidity: 93% 48% 78%
Wind Speed: 0.0mph 0.0mph 0mph
Wind Gust: -999.0mph - -
Wind - - North
Pressure: 23.47 in 23.06 in -
Precipitation: 0.00 in    
Historical Graphs
 
 
Tabular Data for February 22, 2019
Time Temperature Dew Point Pressure Wind Wind Speed Wind Gust Humidity Rainfall Rate (Hourly)
00:12 18.3 °F 16.1 °F 23.06 in Calm   -999.0 mph 91% 0.00 in
00:27 18.5 °F 16.3 °F 23.07 in Calm   -999.0 mph 91% 0.00 in
00:43 18.5 °F 16.6 °F 23.08 in Calm   -999.0 mph 92% 0.00 in
00:58 18.3 °F 16.4 °F 23.07 in Calm   -999.0 mph 92% 0.00 in
01:13 18.3 °F 16.4 °F 23.08 in Calm   -999.0 mph 92% 0.00 in
01:28 18.1 °F 15.9 °F 23.09 in Calm   -999.0 mph 91% 0.00 in
01:43 18.1 °F 16.2 °F 23.09 in Calm   -999.0 mph 92% 0.00 in
01:59 18.0 °F 16.3 °F 23.09 in Calm   -999.0 mph 93% 0.00 in
02:14 18.0 °F 16.3 °F 23.09 in Calm   -999.0 mph 93% 0.00 in
02:29 18.1 °F 16.2 °F 23.10 in Calm   -999.0 mph 92% 0.00 in
02:44 18.0 °F 16.1 °F 23.10 in Calm   -999.0 mph 92% 0.00 in
03:00 17.8 °F 15.9 °F 23.10 in Calm   -999.0 mph 92% 0.00 in
03:15 17.6 °F 15.9 °F 23.11 in Calm   -999.0 mph 93% 0.00 in
03:30 17.6 °F 15.9 °F 23.11 in Calm   -999.0 mph 93% 0.00 in
03:45 17.4 °F 15.2 °F 23.11 in Calm   -999.0 mph 91% 0.00 in
04:00 17.4 °F 15.2 °F 23.12 in Calm   -999.0 mph 91% 0.00 in
04:16 17.4 °F 15.2 °F 23.13 in Calm   -999.0 mph 91% 0.00 in
04:31 17.4 °F 15.5 °F 23.14 in Calm   -999.0 mph 92% 0.00 in
04:46 17.2 °F 15.3 °F 23.14 in Calm   -999.0 mph 92% 0.00 in
05:01 17.2 °F 15.3 °F 23.14 in Calm   -999.0 mph 92% 0.00 in
05:16 17.1 °F 15.2 °F 23.15 in Calm   -999.0 mph 92% 0.00 in
05:32 17.1 °F 14.9 °F 23.16 in Calm   -999.0 mph 91% 0.00 in
05:47 17.1 °F 14.7 °F 23.16 in Calm   -999.0 mph 90% 0.00 in
06:02 16.7 °F 14.3 °F 23.17 in Calm   -999.0 mph 90% 0.00 in
06:17 16.3 °F 13.6 °F 23.18 in Calm   -999.0 mph 89% 0.00 in
06:32 15.6 °F 13.2 °F 23.18 in Calm   -999.0 mph 90% 0.00 in
06:48 14.9 °F 12.7 °F 23.19 in Calm   -999.0 mph 91% 0.00 in
07:03 14.4 °F 12.3 °F 23.20 in Calm   -999.0 mph 91% 0.00 in
07:18 14.2 °F 12.1 °F 23.21 in Calm   -999.0 mph 91% 0.00 in
07:33 14.0 °F 12.1 °F 23.22 in Calm   -999.0 mph 92% 0.00 in
07:49 14.9 °F 12.5 °F 23.22 in Calm   -999.0 mph 90% 0.00 in
08:04 17.1 °F 14.2 °F 23.23 in Calm   -999.0 mph 88% 0.00 in
08:20 18.5 °F 15.0 °F 23.24 in Calm   -999.0 mph 86% 0.00 in
08:35 20.5 °F 15.6 °F 23.24 in Calm   -999.0 mph 81% 0.00 in
08:50 20.1 °F 14.3 °F 23.25 in Calm   -999.0 mph 78% 0.00 in
09:05 20.5 °F 14.7 °F 23.25 in Calm   -999.0 mph 78% 0.00 in
09:20 20.5 °F 13.5 °F 23.25 in Calm   -999.0 mph 74% 0.00 in
09:36 21.0 °F 13.4 °F 23.25 in Calm   -999.0 mph 72% 0.00 in
09:51 21.6 °F 13.6 °F 23.26 in Calm   -999.0 mph 71% 0.00 in
10:06 22.1 °F 12.8 °F 23.26 in Calm   -999.0 mph 67% 0.00 in
10:22 24.1 °F 11.4 °F 23.26 in Calm   -999.0 mph 58% 0.00 in
10:37 25.5 °F 12.8 °F 23.26 in Calm   -999.0 mph 58% 0.00 in
10:52 26.6 °F 12.2 °F 23.27 in Calm   -999.0 mph 54% 0.00 in
11:07 27.3 °F 12.0 °F 23.27 in Calm   -999.0 mph 52% 0.00 in
11:23 28.2 °F 13.2 °F 23.27 in Calm   -999.0 mph 53% 0.00 in
11:38 28.2 °F 13.2 °F 23.27 in Calm   -999.0 mph 53% 0.00 in
11:53 27.7 °F 13.2 °F 23.28 in Calm   -999.0 mph 54% 0.00 in
12:08 27.5 °F 12.2 °F 23.28 in Calm   -999.0 mph 52% 0.00 in
12:23 30.2 °F 13.3 °F 23.28 in Calm   -999.0 mph 49% 0.00 in
12:39 29.1 °F 12.8 °F 23.29 in Calm   -999.0 mph 50% 0.00 in
12:54 28.6 °F 12.7 °F 23.28 in Calm   -999.0 mph 51% 0.00 in
13:09 28.2 °F 12.8 °F 23.29 in Calm   -999.0 mph 52% 0.00 in
13:24 25.5 °F 11.6 °F 23.29 in Calm   -999.0 mph 55% 0.00 in
13:40 25.2 °F 12.1 °F 23.30 in Calm   -999.0 mph 57% 0.00 in
13:55 26.1 °F 12.9 °F 23.30 in Calm   -999.0 mph 57% 0.00 in
14:10 27.3 °F 12.4 °F 23.31 in Calm   -999.0 mph 53% 0.00 in
14:25 28.0 °F 11.3 °F 23.30 in Calm   -999.0 mph 49% 0.00 in
14:40 26.6 °F 10.4 °F 23.31 in Calm   -999.0 mph 50% 0.00 in
14:56 26.8 °F 10.6 °F 23.31 in Calm   -999.0 mph 50% 0.00 in
15:11 24.8 °F 10.1 °F 23.32 in Calm   -999.0 mph 53% 0.00 in
15:26 24.6 °F 7.7 °F 23.32 in Calm   -999.0 mph 48% 0.00 in
15:41 24.8 °F 9.2 °F 23.33 in Calm   -999.0 mph 51% 0.00 in
15:56 23.9 °F 8.8 °F 23.34 in Calm   -999.0 mph 52% 0.00 in
16:12 23.2 °F 9.4 °F 23.34 in Calm   -999.0 mph 55% 0.00 in
16:27 23.4 °F 10.4 °F 23.35 in Calm   -999.0 mph 57% 0.00 in
16:42 22.6 °F 11.2 °F 23.35 in Calm   -999.0 mph 61% 0.00 in
16:57 21.9 °F 11.6 °F 23.35 in Calm   -999.0 mph 64% 0.00 in
17:12 21.0 °F 12.1 °F 23.36 in Calm   -999.0 mph 68% 0.00 in
17:28 20.1 °F 12.5 °F 23.37 in Calm   -999.0 mph 72% 0.00 in
17:43 19.6 °F 14.1 °F 23.37 in Calm   -999.0 mph 79% 0.00 in
17:58 17.6 °F 11.9 °F 23.38 in Calm   -999.0 mph 78% 0.00 in
18:13 16.3 °F 12.8 °F 23.38 in Calm   -999.0 mph 86% 0.00 in
18:28 15.1 °F 11.7 °F 23.39 in Calm   -999.0 mph 86% 0.00 in
18:44 14.2 °F 11.0 °F 23.39 in Calm   -999.0 mph 87% 0.00 in
18:59 14.0 °F 11.4 °F 23.40 in Calm   -999.0 mph 89% 0.00 in
19:14 12.4 °F 10.0 °F 23.40 in Calm   -999.0 mph 90% 0.00 in
19:29 11.7 °F 9.3 °F 23.41 in Calm   -999.0 mph 90% 0.00 in
19:45 10.9 °F 8.8 °F 23.42 in Calm   -999.0 mph 91% 0.00 in
20:00 10.6 °F 8.5 °F 23.42 in Calm   -999.0 mph 91% 0.00 in
20:15 9.9 °F 8.0 °F 23.42 in Calm   -999.0 mph 92% 0.00 in
20:30 9.3 °F 7.4 °F 23.43 in Calm   -999.0 mph 92% 0.00 in
20:45 8.6 °F 6.8 °F 23.43 in Calm   -999.0 mph 92% 0.00 in
21:01 8.1 °F 6.3 °F 23.43 in Calm   -999.0 mph 92% 0.00 in
21:16 7.5 °F 5.7 °F 23.44 in Calm   -999.0 mph 92% 0.00 in
21:31 7.0 °F 5.2 °F 23.44 in Calm   -999.0 mph 92% 0.00 in
21:46 6.1 °F 4.5 °F 23.45 in Calm   -999.0 mph 93% 0.00 in
22:01 5.9 °F 4.3 °F 23.44 in Calm   -999.0 mph 93% 0.00 in
22:17 5.4 °F 3.6 °F 23.45 in Calm   -999.0 mph 92% 0.00 in
22:32 4.8 °F 3.2 °F 23.46 in Calm   -999.0 mph 93% 0.00 in
22:47 4.1 °F 2.5 °F 23.46 in Calm   -999.0 mph 93% 0.00 in
23:02 3.9 °F 2.3 °F 23.46 in Calm   -999.0 mph 93% 0.00 in
23:18 3.7 °F 2.1 °F 23.47 in Calm   -999.0 mph 93% 0.00 in
23:33 3.6 °F 2.0 °F 23.47 in Calm   -999.0 mph 93% 0.00 in
23:48 2.7 °F 1.1 °F 23.47 in Calm   -999.0 mph 93% 0.00 in
Big Bear CA Weather